Terlet Airfield

EHTL · Gelderland, 荷兰

罗盘
风向 的 Terlet Airfield 14R/32L
风: 0 kt, 0 beaufort


改变
0 ft 10.000 20.000 30.000 40.000
Cloud Cloud Cloud Cloud Cloud Cloud
BKN 35.000
METAR EHDL 041925Z AUTO 00000KT 9999 BKN350 05/04 Q1012 BLU

METAR Terlet Airfield - EHTL

Terlet Airfield是,荷兰中的格利德菲尔德。 该机场位于纬度52,05526和经度5,92560。 该机场有6条跑道: 14R/32L, 12/30, 14L/32R, 4L/22R, 4C/22C 和 4R/22L. 本场的ICAO机场代码为EHTL。 机场在Amsterdam FIR中。

该航空气象观测是针对Deelen Air Base在2024年3月4日 20:25, 当地时间进行的。

机场观察

可变方向的风很小或没有风。

可见度为10 km 或者更多。

有碎云在35.000 ft的高度。 破损或更高的上限为35.000 ft。

温度和风寒是5 °C。 露点为4 °C,相对湿度为93%。 海平面上的气压为1012 hPa (QNH)。

白天

今天,太阳从07:14升起,在18:21降落。 这适用于Terlet Airfield,世界夏令时可能有所不同。 当地时间与世界标准时间之间的时差为+1 小时。 当前,没有夏令时有效。

公司介绍

在这个机场,你可以找到滑翔机飞行俱乐部 和 飞行俱乐部。 这个机场上的公司有Vliegles.nl 和 Delftsche Studenten Aeroclub。

体会

在这个机场有飞行课程。 你可以在没有任何经验的情况下预订飞行课程。 在Terlet Airfield预订最多的飞行课程类型是Day course gliding。 这些课程的价格从€ 169开始。 在这里阅读更多关于Day course gliding的信息。你也可以在这个网站上进行预订。

跑道

Id 标题 侧风 逆风 侧风 %
14R/32L 131°-311°
12/30 114°-294°
14L/32R 133°-313°
4L/22R 036°-216°
4C/22C 040°-220°
4R/22L 039°-219°

逆风成分最大的方向会被突出显示,并用于横风计算。 这并不一定意味着这个方向在使用。

乌云

35.000 ft BKN 碎云

温度 & 天气

温度 5 °C
露点 4 °C
相对湿度 93%
Kp-index 1 (0-9)

白天

日出
07:14 (9:42)
中午
12:48
日落
18:21

小工具

你想在你的网站上有一个关于Terlet Airfield的当前航空天气(METAR)的小部件吗?

显示HTML代码
?>